Time;durP1;ratioP1;P1;durP2;ratioP2;P2;SDS_P1;SDS_P2;PMS_P1;PMS_P2;Temp;Humidity;BMP_temperature;BMP_pressure;BME280_temperature;BME280_humidity;BME280_pressure;Samples;Min_cycle;Max_cycle;Signal;HPM_P1;HPM_P2
2022/07/02 00:02:17;;;;;;;7.10;6.50;;;;;;;14.70;71.16;101420.19;4998743;28;20264;-82
2022/07/02 00:04:47;;;;;;;6.53;5.97;;;;;;;14.68;71.41;101414.97;4987445;28;20204;-83
2022/07/02 00:07:15;;;;;;;6.97;6.30;;;;;;;14.66;71.52;101414.19;4997359;28;20222;-82
2022/07/02 00:09:42;;;;;;;7.83;7.03;;;;;;;14.65;71.89;101414.31;4991671;28;20566;-83
2022/07/02 00:12:11;;;;;;;7.00;6.47;;;;;;;14.62;71.97;101411.81;4991561;28;20200;-83
2022/07/02 00:14:38;;;;;;;7.37;6.67;;;;;;;14.59;71.65;101407.53;4997458;28;20279;-84
2022/07/02 00:17:05;;;;;;;7.83;7.23;;;;;;;14.57;72.28;101404.09;4997526;28;20603;-83
2022/07/02 00:19:34;;;;;;;7.90;7.30;;;;;;;14.55;72.56;101397.97;4993104;28;20230;-83
2022/07/02 00:22:02;;;;;;;7.53;6.80;;;;;;;14.53;72.40;101408.78;4995890;28;20294;-83
2022/07/02 00:24:29;;;;;;;7.23;6.60;;;;;;;14.48;72.40;101402.91;4990667;28;20208;-83
2022/07/02 00:26:58;;;;;;;7.27;6.67;;;;;;;14.43;72.37;101410.41;4988249;28;20238;-82
2022/07/02 00:29:34;;;;;;;7.63;6.93;;;;;;;14.37;72.43;101413.44;4987284;28;20207;-83
2022/07/02 00:32:00;;;;;;;7.93;7.10;;;;;;;14.30;72.38;101413.97;4999331;28;20203;-83
2022/07/02 00:34:29;;;;;;;8.33;7.67;;;;;;;14.23;72.96;101416.19;4984632;28;20234;-82
2022/07/02 00:36:56;;;;;;;8.00;7.33;;;;;;;14.18;72.99;101418.31;4995635;28;20234;-83
2022/07/02 00:39:23;;;;;;;7.93;7.20;;;;;;;14.11;73.16;101423.22;4993705;28;20227;-82
2022/07/02 00:41:51;;;;;;;8.00;7.40;;;;;;;14.06;73.60;101419.13;4994210;28;20310;-83
2022/07/02 00:44:18;;;;;;;8.23;7.43;;;;;;;14.02;73.93;101412.25;4991878;28;20212;-81
2022/07/02 00:46:48;;;;;;;8.73;7.93;;;;;;;13.98;74.52;101427.66;4997539;28;20234;-82
2022/07/02 00:49:15;;;;;;;8.10;7.40;;;;;;;13.93;74.03;101421.75;4991392;28;20207;-83
2022/07/02 00:51:41;;;;;;;7.97;7.30;;;;;;;13.88;74.60;101421.19;4993695;28;20207;-82
2022/07/02 00:54:08;;;;;;;7.50;6.90;;;;;;;13.83;74.75;101417.94;4993358;28;20218;-82
2022/07/02 00:56:35;;;;;;;8.07;7.33;;;;;;;13.80;75.16;101410.94;4992741;28;20227;-83
2022/07/02 00:59:03;;;;;;;7.63;7.03;;;;;;;13.80;75.69;101424.34;4997518;28;20721;-83
2022/07/02 01:01:30;;;;;;;7.73;7.03;;;;;;;13.77;75.64;101413.84;4993524;28;20207;-82
2022/07/02 01:04:01;;;;;;;7.60;6.80;;;;;;;13.75;75.56;101413.09;4993879;28;20204;-82
2022/07/02 01:06:28;;;;;;;7.37;6.70;;;;;;;13.72;75.46;101415.97;4991501;28;20223;-82
2022/07/02 01:11:42;;;;;;;7.63;6.90;;;;;;;13.65;76.02;101427.16;4995775;28;20214;-82
2022/07/02 01:14:08;;;;;;;7.13;6.43;;;;;;;13.61;76.26;101436.34;4984849;28;20214;-82
2022/07/02 01:16:35;;;;;;;7.63;6.97;;;;;;;13.59;76.37;101424.88;4993647;28;20227;-82
2022/07/02 01:19:04;;;;;;;7.50;6.67;;;;;;;13.58;76.54;101426.69;4987685;28;20701;-82
2022/07/02 01:21:30;;;;;;;7.53;6.20;;;;;;;13.59;77.03;101428.41;4992483;28;20206;-81
2022/07/02 01:23:58;;;;;;;7.27;6.57;;;;;;;13.59;77.09;101424.88;4992901;28;20204;-81
2022/07/02 01:26:24;;;;;;;7.90;5.77;;;;;;;13.61;76.73;101428.31;4989419;28;20226;-81
2022/07/02 01:28:51;;;;;;;7.10;6.50;;;;;;;13.60;76.93;101424.78;4989883;28;20658;-82
2022/07/02 01:31:19;;;;;;;7.17;6.47;;;;;;;13.62;76.69;101428.19;4991934;28;20571;-81
2022/07/02 01:33:45;;;;;;;6.73;6.10;;;;;;;13.62;76.74;101422.84;4986632;28;20209;-81
2022/07/02 01:36:12;;;;;;;9.27;6.67;;;;;;;13.62;76.30;101424.66;4993792;28;20214;-82
2022/07/02 01:38:39;;;;;;;7.50;6.47;;;;;;;13.57;75.91;101430.31;4988513;28;20587;-82
2022/07/02 01:43:50;;;;;;;7.00;6.43;;;;;;;13.50;76.52;101431.66;4993365;28;20278;-83
2022/07/02 01:46:17;;;;;;;7.10;6.53;;;;;;;13.48;76.18;101431.75;4995385;28;20713;-81
2022/07/02 01:48:43;;;;;;;7.50;6.80;;;;;;;13.49;76.29;101427.25;4995011;28;20203;-81
2022/07/02 01:51:10;;;;;;;7.13;6.53;;;;;;;13.47;76.62;101422.00;4993414;28;20211;-83
2022/07/02 01:53:37;;;;;;;6.50;6.00;;;;;;;13.46;76.47;101428.31;5002401;28;20211;-83
2022/07/02 01:56:04;;;;;;;6.43;5.87;;;;;;;13.46;76.45;101424.78;4990157;28;20686;-82
2022/07/02 01:58:31;;;;;;;7.17;6.50;;;;;;;13.45;76.45;101429.25;4989204;28;20685;-83
2022/07/02 02:00:58;;;;;;;6.87;6.23;;;;;;;13.42;76.52;101434.84;4998761;28;20227;-82
2022/07/02 02:03:25;;;;;;;7.23;6.43;;;;;;;13.39;76.36;101450.22;4994692;28;20204;-82
2022/07/02 02:05:52;;;;;;;7.03;6.33;;;;;;;13.35;76.46;101441.50;4994839;28;20227;-81
2022/07/02 02:08:19;;;;;;;6.67;6.07;;;;;;;13.33;76.50;101445.25;4998552;28;20226;-81
2022/07/02 02:10:45;;;;;;;6.40;5.70;;;;;;;13.31;76.58;101441.78;4994458;28;20211;-81
2022/07/02 02:13:12;;;;;;;7.00;6.40;;;;;;;13.30;76.40;101442.75;5003563;28;20223;-82
2022/07/02 02:15:40;;;;;;;6.53;6.03;;;;;;;13.29;76.44;101443.69;4997919;28;20210;-82
2022/07/02 02:18:06;;;;;;;7.00;6.37;;;;;;;13.29;76.58;101446.38;4993642;28;20232;-82
2022/07/02 02:20:33;;;;;;;6.73;6.17;;;;;;;13.28;76.78;101447.31;5005360;28;20243;-81
2022/07/02 02:23:04;;;;;;;7.33;6.63;;;;;;;13.26;76.73;101447.41;5002497;28;20229;-81
2022/07/02 02:25:31;;;;;;;7.17;6.57;;;;;;;13.23;76.39;101444.97;4992128;28;20216;-82
2022/07/02 02:27:57;;;;;;;7.70;6.53;;;;;;;13.18;76.12;101455.06;5004094;28;20237;-81
2022/07/02 02:30:24;;;;;;;6.83;6.17;;;;;;;13.13;76.07;101454.44;4991019;28;20656;-81
2022/07/02 02:32:52;;;;;;;7.00;6.40;;;;;;;13.08;76.55;101452.06;4990135;28;20216;-82
2022/07/02 02:35:19;;;;;;;6.93;6.33;;;;;;;13.06;76.95;101454.00;4992791;28;20210;-82
2022/07/02 02:37:46;;;;;;;8.13;6.37;;;;;;;13.01;76.97;101456.06;4994929;28;20695;-82
2022/07/02 02:40:12;;;;;;;7.27;6.60;;;;;;;12.99;76.94;101460.66;4993486;28;20231;-82
2022/07/02 02:42:39;;;;;;;10.97;6.53;;;;;;;12.99;77.26;101468.66;5003016;28;20203;-82
2022/07/02 02:45:06;;;;;;;6.47;5.97;;;;;;;12.99;77.15;101466.00;4996437;28;20222;-83
2022/07/02 02:47:32;;;;;;;6.73;6.20;;;;;;;12.98;77.03;101469.63;4996399;28;20258;-83
2022/07/02 02:50:00;;;;;;;7.07;6.37;;;;;;;12.93;76.65;101474.38;4992416;28;20203;-81
2022/07/02 02:52:27;;;;;;;7.00;6.40;;;;;;;12.89;76.89;101472.00;5000702;28;20652;-82
2022/07/02 02:54:53;;;;;;;7.90;6.57;;;;;;;12.86;77.07;101479.25;4993307;28;20207;-81
2022/07/02 02:57:20;;;;;;;6.83;6.23;;;;;;;12.86;77.75;101473.91;4989227;28;20230;-82
2022/07/02 02:59:46;;;;;;;6.57;5.77;;;;;;;12.87;77.59;101480.13;4994230;28;20258;-81
2022/07/02 03:02:13;;;;;;;6.37;5.73;;;;;;;12.87;77.75;101474.75;4998127;28;20251;-82
2022/07/02 03:04:39;;;;;;;6.97;6.30;;;;;;;12.87;77.58;101480.13;4996999;28;20218;-82
2022/07/02 03:07:07;;;;;;;6.57;5.97;;;;;;;12.85;77.34;101474.00;4992228;28;20580;-82
2022/07/02 03:09:34;;;;;;;6.23;5.70;;;;;;;12.85;77.36;101482.88;4993048;28;20211;-83
2022/07/02 03:12:00;;;;;;;11.13;5.77;;;;;;;12.83;77.16;101479.44;4996928;28;20200;-82
2022/07/02 03:14:27;;;;;;;7.93;6.53;;;;;;;12.82;77.38;101482.19;4995006;28;20666;-83
2022/07/02 03:16:53;;;;;;;5.73;5.17;;;;;;;12.79;77.24;101482.38;4994960;28;20231;-82
2022/07/02 03:19:20;;;;;;;5.73;5.23;;;;;;;12.76;77.32;101495.91;4995421;28;20208;-82
2022/07/02 03:21:46;;;;;;;5.70;5.27;;;;;;;12.73;77.26;101501.44;4992332;28;20231;-82
2022/07/02 03:24:15;;;;;;;5.70;5.20;;;;;;;12.67;77.22;101508.00;4989396;28;20211;-82
2022/07/02 03:26:42;;;;;;;7.03;5.73;;;;;;;12.64;77.12;101510.88;4998159;28;20238;-82
2022/07/02 03:29:08;;;;;;;5.93;5.43;;;;;;;12.62;77.11;101509.22;4993054;28;20210;-83
2022/07/02 03:31:35;;;;;;;6.03;5.27;;;;;;;12.63;77.22;101508.28;4987852;28;20200;-82
2022/07/02 03:34:01;;;;;;;5.97;5.47;;;;;;;12.62;77.41;101514.56;4994809;28;20203;-83
2022/07/02 03:36:29;;;;;;;6.07;5.57;;;;;;;12.61;77.54;101507.50;4984876;28;20266;-81
2022/07/02 03:38:56;;;;;;;6.90;6.20;;;;;;;12.59;77.45;101506.72;4990463;28;20210;-81
2022/07/02 03:41:23;;;;;;;7.37;5.50;;;;;;;12.55;77.31;101510.53;4986832;28;20230;-81
2022/07/02 03:43:50;;;;;;;6.10;5.40;;;;;;;12.54;77.71;101511.50;4989442;28;20212;-82
2022/07/02 03:46:17;;;;;;;7.27;6.07;;;;;;;12.52;78.09;101517.78;4995554;28;20250;-81
2022/07/02 03:48:44;;;;;;;7.70;5.37;;;;;;;12.51;78.26;101509.84;4989215;28;20654;-81
2022/07/02 03:51:10;;;;;;;5.57;5.07;;;;;;;12.52;78.28;101514.25;4985878;28;20222;-82
2022/07/02 03:53:37;;;;;;;7.20;5.20;;;;;;;12.52;78.58;101514.25;4995285;28;20811;-82
2022/07/02 03:56:04;;;;;;;6.07;4.70;;;;;;;12.51;78.23;101515.22;4988898;28;20244;-82
2022/07/02 03:58:32;;;;;;;8.03;5.13;;;;;;;12.51;78.72;101524.09;4982172;28;20212;-82
2022/07/02 04:00:59;;;;;;;6.93;5.10;;;;;;;12.49;78.72;101520.63;4993933;28;20256;-82
2022/07/02 04:03:25;;;;;;;8.67;5.27;;;;;;;12.47;78.57;101522.53;4984487;28;20227;-82
2022/07/02 04:05:52;;;;;;;7.27;4.77;;;;;;;12.49;78.61;101527.78;4985225;28;20644;-81
2022/07/02 04:08:18;;;;;;;6.17;5.67;;;;;;;12.48;78.96;101531.41;4990147;28;20701;-81
2022/07/02 04:10:45;;;;;;;6.10;5.13;;;;;;;12.50;79.06;101534.84;4992149;28;20201;-81
2022/07/02 04:13:12;;;;;;;7.53;5.40;;;;;;;12.51;79.15;101525.91;4988160;28;20288;-82
2022/07/02 04:15:40;;;;;;;5.90;5.27;;;;;;;12.53;79.30;101529.34;4988114;28;20217;-83
2022/07/02 04:18:06;;;;;;;6.40;5.80;;;;;;;12.55;79.28;101535.44;4984812;28;20286;-83
2022/07/02 04:20:33;;;;;;;5.77;5.27;;;;;;;12.58;79.61;101532.59;4986009;28;20230;-83
2022/07/02 04:22:59;;;;;;;7.17;5.50;;;;;;;12.61;79.40;101534.22;4982552;28;20555;-83
2022/07/02 04:25:26;;;;;;;7.20;5.60;;;;;;;12.62;79.44;101528.78;4988665;28;20209;-82
2022/07/02 04:27:52;;;;;;;7.10;5.73;;;;;;;12.65;79.78;101533.09;4992468;28;20245;-82
2022/07/02 04:30:19;;;;;;;6.80;5.53;;;;;;;12.67;80.06;101529.41;4988823;28;20692;-82
2022/07/02 04:32:47;;;;;;;8.73;5.73;;;;;;;12.69;80.29;101530.19;4990801;28;20212;-82
2022/07/02 04:35:13;;;;;;;6.97;6.10;;;;;;;12.72;80.43;101524.63;4988392;28;20235;-82
2022/07/02 04:37:40;;;;;;;6.97;6.27;;;;;;;12.74;80.84;101528.06;4981786;28;20315;-82
2022/07/02 04:40:08;;;;;;;7.90;5.80;;;;;;;12.79;81.23;101538.50;5002528;28;20242;-82
2022/07/02 04:42:34;;;;;;;7.00;6.30;;;;;;;12.81;81.88;101532.13;4993711;28;20203;-81
2022/07/02 04:45:01;;;;;;;9.07;5.67;;;;;;;12.87;82.24;101528.22;5003967;28;20731;-82
2022/07/02 04:47:27;;;;;;;6.53;5.93;;;;;;;12.92;82.23;101534.16;4992879;28;20241;-82
2022/07/02 04:49:55;;;;;;;9.33;5.17;;;;;;;12.95;82.88;101535.78;4992714;28;20211;-82
2022/07/02 04:52:22;;;;;;;8.77;6.63;;;;;;;13.00;82.88;101537.25;4988107;28;20204;-81
2022/07/02 04:54:48;;;;;;;7.50;5.33;;;;;;;13.04;82.89;101533.44;4988608;28;20225;-81
2022/07/02 04:57:15;;;;;;;5.83;5.33;;;;;;;13.08;83.45;101537.63;4990747;28;20234;-82
2022/07/02 04:59:44;;;;;;;6.00;5.40;;;;;;;13.13;83.11;101542.72;4997670;28;20608;-82
2022/07/02 05:02:10;;;;;;;7.27;5.57;;;;;;;13.17;83.19;101536.28;4989029;28;20623;-81
2022/07/02 05:04:37;;;;;;;6.93;5.57;;;;;;;13.22;83.45;101539.53;4988167;28;20202;-82
2022/07/02 05:07:06;;;;;;;6.50;5.43;;;;;;;13.30;83.97;101539.06;4987090;28;20230;-83
2022/07/02 05:09:32;;;;;;;7.50;5.43;;;;;;;13.35;84.22;101539.66;4992455;28;20711;-81
2022/07/02 05:12:00;;;;;;;6.07;5.17;;;;;;;13.41;83.90;101537.47;4994472;28;20199;-81
2022/07/02 05:14:27;;;;;;;6.10;5.30;;;;;;;13.49;84.12;101548.56;4980239;28;20661;-83
2022/07/02 05:16:54;;;;;;;6.33;5.70;;;;;;;13.57;84.32;101555.25;4988399;28;20239;-81
2022/07/02 05:19:20;;;;;;;6.63;5.87;;;;;;;13.65;84.36;101542.25;4986660;28;20248;-81
2022/07/02 05:21:47;;;;;;;7.90;5.23;;;;;;;13.73;84.36;101550.69;4986406;28;20227;-82
2022/07/02 05:24:14;;;;;;;7.00;5.33;;;;;;;13.84;84.56;101554.41;4993998;28;20212;-83
2022/07/02 05:26:41;;;;;;;7.43;4.90;;;;;;;13.94;84.94;101553.84;4985105;28;20227;-84
2022/07/02 05:29:07;;;;;;;7.57;5.23;;;;;;;14.04;84.61;101561.19;4990788;28;20669;-82
2022/07/02 05:31:34;;;;;;;8.20;5.90;;;;;;;14.14;84.56;101554.28;4985813;28;20203;-82
2022/07/02 05:34:01;;;;;;;8.13;5.40;;;;;;;14.27;84.98;101557.03;4995394;28;20206;-82
2022/07/02 05:36:27;;;;;;;5.30;4.70;;;;;;;14.40;85.07;101555.31;4991342;28;20227;-83
2022/07/02 05:38:54;;;;;;;4.87;4.47;;;;;;;14.52;84.69;101562.53;4999118;28;20214;-83
2022/07/02 05:41:22;;;;;;;5.27;4.80;;;;;;;14.65;84.62;101565.31;4999787;28;20713;-83
2022/07/02 05:43:48;;;;;;;5.37;4.87;;;;;;;14.79;84.44;101561.69;4995557;28;20667;-82
2022/07/02 05:46:15;;;;;;;6.67;5.50;;;;;;;14.95;84.55;101565.06;4994293;28;20210;-83
2022/07/02 05:48:42;;;;;;;5.60;4.80;;;;;;;15.11;83.75;101571.13;5006237;28;20203;-82
2022/07/02 05:51:08;;;;;;;7.43;4.77;;;;;;;15.26;83.32;101572.75;4986978;28;20779;-84
2022/07/02 05:53:35;;;;;;;6.70;4.80;;;;;;;15.43;82.78;101571.59;4994342;28;20584;-83
2022/07/02 05:56:01;;;;;;;5.50;4.50;;;;;;;15.59;81.99;101566.91;4992569;28;20199;-84
2022/07/02 05:58:29;;;;;;;6.37;4.63;;;;;;;15.78;81.39;101574.53;4992735;28;20212;-84
2022/07/02 06:00:56;;;;;;;4.73;4.30;;;;;;;15.98;80.99;101567.75;4988244;28;20630;-85
2022/07/02 06:03:22;;;;;;;5.70;4.23;;;;;;;16.17;80.08;101573.53;4987452;28;20205;-82
2022/07/02 06:08:33;;;;;;;5.40;3.93;;;;;;;16.60;78.01;101565.03;4986930;28;20212;-84
2022/07/02 06:10:59;;;;;;;5.90;3.93;;;;;;;16.78;77.05;101561.00;4986712;28;20206;-83
2022/07/02 06:13:26;;;;;;;7.30;4.03;;;;;;;16.95;76.15;101571.38;4984048;28;20212;-82
2022/07/02 06:15:54;;;;;;;6.97;3.97;;;;;;;17.18;75.41;101569.63;4982620;28;20204;-82
2022/07/02 06:18:20;;;;;;;4.83;3.13;;;;;;;17.40;73.99;101570.63;4985803;28;20245;-84
2022/07/02 06:20:47;;;;;;;7.03;3.40;;;;;;;17.62;73.53;101573.38;4981624;28;20208;-83
2022/07/02 06:23:13;;;;;;;5.50;2.97;;;;;;;17.86;72.59;101573.34;4989142;28;20212;-84
2022/07/02 06:25:40;;;;;;;3.77;2.60;;;;;;;18.10;71.17;101578.59;4990336;28;20599;-84
2022/07/02 06:28:06;;;;;;;4.00;2.93;;;;;;;18.30;70.04;101572.44;4990523;28;20232;-83
2022/07/02 06:30:33;;;;;;;3.97;2.80;;;;;;;18.47;68.78;101573.75;4993944;28;20215;-84
2022/07/02 06:33:01;;;;;;;3.10;2.80;;;;;;;18.63;67.32;101575.09;4987341;28;20665;-83
2022/07/02 06:35:27;;;;;;;3.63;2.20;;;;;;;18.76;66.55;101577.66;4988141;28;20210;-83
2022/07/02 06:37:54;;;;;;;4.37;2.77;;;;;;;18.92;66.21;101575.41;4983799;28;20240;-82
2022/07/02 06:40:20;;;;;;;2.43;2.00;;;;;;;19.10;65.00;101577.53;4988589;28;20691;-81
2022/07/02 06:42:47;;;;;;;3.63;2.33;;;;;;;19.25;63.72;101571.69;4996930;28;20234;-83
2022/07/02 06:45:13;;;;;;;3.37;2.77;;;;;;;19.42;63.52;101579.22;4996336;28;20223;-83
2022/07/02 06:47:40;;;;;;;2.70;2.43;;;;;;;19.63;63.07;101581.09;4992392;28;20236;-84
2022/07/02 06:50:10;;;;;;;3.47;2.10;;;;;;;19.81;62.07;101584.03;4986529;28;20210;-84
2022/07/02 06:52:37;;;;;;;3.50;2.07;;;;;;;19.97;61.12;101579.00;4983551;28;20205;-84
2022/07/02 06:55:04;;;;;;;2.23;2.00;;;;;;;20.12;60.03;101577.63;4983408;28;20226;-84
2022/07/02 06:57:31;;;;;;;4.00;2.20;;;;;;;20.25;59.47;101583.66;4988371;28;20225;-83
2022/07/02 06:59:57;;;;;;;3.00;2.20;;;;;;;20.39;58.14;101582.47;4985562;28;20210;-84
2022/07/02 07:02:24;;;;;;;3.30;2.33;;;;;;;20.50;57.22;101579.63;4987884;28;20238;-82
2022/07/02 07:04:50;;;;;;;6.03;2.17;;;;;;;20.64;57.53;101578.38;4988423;28;20546;-83
2022/07/02 07:07:19;;;;;;;3.87;2.20;;;;;;;20.80;56.54;101584.94;4988508;28;20238;-82
2022/07/02 07:09:46;;;;;;;3.00;2.00;;;;;;;20.97;55.44;101580.69;4986878;28;20212;-83
2022/07/02 07:12:12;;;;;;;2.50;1.50;;;;;;;21.12;54.78;101586.56;4988460;28;20203;-84
2022/07/02 07:14:39;;;;;;;2.53;1.85;;;;;;;21.25;54.07;101583.59;4982055;28;20211;-83
2022/07/02 07:17:05;;;;;;;2.78;1.42;;;;;;;21.41;53.99;101582.00;4990479;28;20220;-84
2022/07/02 07:19:32;;;;;;;1.98;1.42;;;;;;;21.60;53.38;101585.69;4993189;28;20291;-83
2022/07/02 07:21:58;;;;;;;2.20;1.40;;;;;;;21.72;52.38;101581.78;5000118;28;20231;-83
2022/07/02 07:24:26;;;;;;;1.88;1.20;;;;;;;21.89;52.01;101589.16;4994736;28;20297;-84
2022/07/02 07:26:53;;;;;;;2.00;1.30;;;;;;;22.08;51.50;101581.00;4991310;28;20232;-83
2022/07/02 07:29:19;;;;;;;1.75;1.10;;;;;;;22.23;50.41;101588.63;4983519;28;20209;-83
2022/07/02 07:31:46;;;;;;;3.60;1.15;;;;;;;22.36;49.55;101592.72;4996143;28;20602;-82
2022/07/02 07:34:13;;;;;;;1.65;0.82;;;;;;;22.47;48.77;101589.81;4996582;28;20215;-83
2022/07/02 07:36:39;;;;;;;1.30;0.93;;;;;;;22.62;48.26;101589.28;4994432;28;20722;-83
2022/07/02 07:39:06;;;;;;;2.45;0.85;;;;;;;22.70;46.74;101582.09;4996952;28;20215;-84
2022/07/02 07:41:35;;;;;;;2.15;0.85;;;;;;;22.79;46.01;101573.03;5000799;28;20227;-85
2022/07/02 07:44:03;;;;;;;2.15;0.70;;;;;;;22.91;44.94;101578.28;5001272;28;20697;-84
2022/07/02 07:46:29;;;;;;;1.52;0.80;;;;;;;23.00;44.22;101580.03;5002458;28;20564;-83
2022/07/02 07:48:56;;;;;;;2.03;0.80;;;;;;;23.14;43.61;101582.19;4992916;28;20270;-83
2022/07/02 07:51:23;;;;;;;1.83;0.80;;;;;;;23.30;43.77;101585.06;4995801;28;20199;-83
2022/07/02 07:53:49;;;;;;;2.13;1.00;;;;;;;23.42;42.75;101583.81;4994614;28;20203;-85
2022/07/02 07:56:16;;;;;;;2.88;0.90;;;;;;;23.53;41.81;101585.47;4994987;28;20199;-83
2022/07/02 07:58:44;;;;;;;2.15;0.80;;;;;;;23.64;42.14;101585.22;4995570;28;20200;-84
2022/07/02 08:01:11;;;;;;;2.00;0.80;;;;;;;23.76;41.32;101583.06;4994588;28;20212;-84
2022/07/02 08:03:37;;;;;;;1.50;0.70;;;;;;;23.85;40.83;101584.81;4991459;28;20211;-84
2022/07/02 08:06:04;;;;;;;1.30;1.00;;;;;;;23.96;40.63;101590.00;4986835;28;20224;-84
2022/07/02 08:08:31;;;;;;;3.17;0.90;;;;;;;24.11;40.84;101582.94;4983944;28;20207;-83
2022/07/02 08:10:57;;;;;;;0.88;0.82;;;;;;;24.28;40.64;101592.06;4993437;28;20211;-84
2022/07/02 08:13:24;;;;;;;2.03;0.90;;;;;;;24.38;38.81;101579.16;4984989;28;20751;-83
2022/07/02 08:15:52;;;;;;;2.28;1.15;;;;;;;24.39;39.30;101593.63;4986633;28;20207;-83
2022/07/02 08:18:18;;;;;;;2.90;0.90;;;;;;;24.40;39.53;101590.75;4998441;28;20320;-84
2022/07/02 08:20:45;;;;;;;1.58;0.90;;;;;;;24.46;39.25;101591.97;4986746;28;20215;-83
2022/07/02 08:23:11;;;;;;;3.55;1.02;;;;;;;24.53;39.20;101587.56;4994092;28;20243;-84
2022/07/02 08:25:38;;;;;;;2.08;1.00;;;;;;;24.59;39.14;101586.91;4984232;28;20218;-83
2022/07/02 08:28:05;;;;;;;0.98;0.70;;;;;;;24.68;39.55;101575.03;4987624;28;20231;-85
2022/07/02 08:30:31;;;;;;;1.23;0.80;;;;;;;24.74;38.45;101585.22;4988872;28;20211;-84
2022/07/02 08:32:59;;;;;;;2.83;0.90;;;;;;;24.73;38.91;101586.25;4985224;28;20353;-84
2022/07/02 08:35:26;;;;;;;1.40;0.70;;;;;;;24.80;38.64;101586.44;4992923;28;20206;-84
2022/07/02 08:37:53;;;;;;;3.05;0.95;;;;;;;24.82;37.57;101582.53;4996702;28;20561;-84
2022/07/02 08:40:24;;;;;;;2.03;0.80;;;;;;;24.89;36.26;101580.84;4986558;28;20235;-84
2022/07/02 08:42:52;;;;;;;2.28;0.85;;;;;;;24.98;35.93;101578.16;4989157;28;20262;-83
2022/07/02 08:45:21;;;;;;;2.72;0.73;;;;;;;25.07;35.66;101574.44;4990250;28;20266;-84
2022/07/02 08:47:50;;;;;;;2.45;0.73;;;;;;;25.16;36.25;101574.25;4994986;28;20238;-84
2022/07/02 08:50:19;;;;;;;2.13;1.00;;;;;;;25.29;36.34;101575.63;4997016;28;20204;-83
2022/07/02 08:52:48;;;;;;;3.38;1.10;;;;;;;25.41;37.40;101572.41;4991014;28;20196;-84
2022/07/02 08:55:15;;;;;;;3.42;0.98;;;;;;;25.58;36.63;101570.50;5002829;28;20211;-84
2022/07/02 08:57:42;;;;;;;1.42;0.80;;;;;;;25.58;35.96;101565.03;4992512;28;20250;-83
2022/07/02 09:00:09;;;;;;;1.98;0.90;;;;;;;25.52;35.73;101563.84;4990194;28;20300;-83
2022/07/02 09:02:37;;;;;;;1.85;0.80;;;;;;;25.45;36.29;101554.63;4995047;28;20231;-83
2022/07/02 09:05:05;;;;;;;1.27;0.80;;;;;;;25.44;36.21;101561.13;5000199;28;20214;-83
2022/07/02 09:07:36;;;;;;;2.25;1.00;;;;;;;25.53;36.29;101565.56;4995626;28;20222;-83
2022/07/02 09:10:04;;;;;;;3.17;0.77;;;;;;;25.55;35.87;101560.78;4999125;28;20203;-82
2022/07/02 09:12:30;;;;;;;2.75;0.90;;;;;;;25.51;35.81;101556.69;4991971;28;20201;-83
2022/07/02 09:14:58;;;;;;;1.15;0.80;;;;;;;25.42;35.76;101556.88;5005131;28;20210;-83
2022/07/02 09:17:25;;;;;;;1.88;0.95;;;;;;;25.37;35.74;101551.09;4987118;28;20235;-83
2022/07/02 09:19:52;;;;;;;2.40;1.00;;;;;;;25.40;36.04;101557.06;4997964;28;20215;-82
2022/07/02 09:22:18;;;;;;;1.10;0.45;;;;;;;25.43;35.52;101551.25;5004859;28;20265;-82
2022/07/02 09:24:46;;;;;;;5.45;1.10;;;;;;;25.38;34.92;101550.91;4999995;28;20202;-83
2022/07/02 09:27:14;;;;;;;2.25;0.80;;;;;;;25.39;35.13;101549.91;5006761;28;20262;-83
2022/07/02 09:29:42;;;;;;;1.33;0.70;;;;;;;25.43;35.10;101548.53;5009948;28;20206;-83
2022/07/02 09:32:09;;;;;;;1.42;0.70;;;;;;;25.42;34.90;101540.53;5006442;28;20255;-83
2022/07/02 09:34:41;;;;;;;2.38;0.63;;;;;;;25.43;34.71;101542.22;4999884;28;20297;-83
2022/07/02 09:37:13;;;;;;;2.38;0.80;;;;;;;25.41;34.44;101534.22;5007572;28;20304;-83
2022/07/02 09:39:41;;;;;;;0.57;0.52;;;;;;;25.37;34.95;101527.41;4997368;28;20205;-84
2022/07/02 09:42:09;;;;;;;1.60;0.65;;;;;;;25.32;34.15;101528.94;4999384;28;20230;-84
2022/07/02 09:44:36;;;;;;;2.05;0.70;;;;;;;25.22;34.62;101532.69;5002898;28;20218;-84
2022/07/02 09:47:02;;;;;;;1.88;0.70;;;;;;;25.21;34.67;101527.41;4997808;28;20652;-84
2022/07/02 09:49:29;;;;;;;2.70;0.98;;;;;;;25.20;35.13;101522.97;5005210;28;20752;-83
2022/07/02 09:51:56;;;;;;;1.65;0.80;;;;;;;25.22;34.95;101521.78;5007119;28;20699;-83
2022/07/02 09:54:23;;;;;;;1.85;0.90;;;;;;;25.26;35.07;101523.13;4997834;28;20215;-83
2022/07/02 09:56:54;;;;;;;3.03;0.82;;;;;;;25.31;35.01;101528.06;5003553;28;20247;-84
2022/07/02 09:59:23;;;;;;;1.92;1.00;;;;;;;25.45;34.88;101519.19;5010235;28;20204;-84
2022/07/02 10:01:49;;;;;;;3.13;0.90;;;;;;;25.58;34.50;101519.53;5013582;28;20231;-83
2022/07/02 10:04:16;;;;;;;2.60;0.75;;;;;;;25.72;34.33;101517.97;5005860;28;20298;-83
2022/07/02 10:06:44;;;;;;;1.23;0.73;;;;;;;25.79;34.27;101519.00;4997280;28;20227;-84
2022/07/02 10:09:11;;;;;;;2.97;0.98;;;;;;;25.90;34.48;101517.75;4995494;28;20203;-83
2022/07/02 10:11:39;;;;;;;2.53;1.05;;;;;;;26.03;34.33;101517.19;5005103;28;20203;-84
2022/07/02 10:14:06;;;;;;;2.15;1.02;;;;;;;26.17;34.82;101510.97;5000987;28;20286;-84
2022/07/02 10:16:35;;;;;;;1.75;1.00;;;;;;;26.33;34.26;101515.56;4997912;28;20253;-84
2022/07/02 10:19:03;;;;;;;3.47;1.20;;;;;;;26.40;34.13;101503.72;4995765;28;20212;-84
2022/07/02 10:21:31;;;;;;;0.60;0.60;;;;;;;26.45;34.34;101497.72;4997271;28;20198;-84
2022/07/02 10:23:58;;;;;;;1.98;0.70;;;;;;;26.54;33.98;101499.34;5006033;28;20254;-85
2022/07/02 10:26:26;;;;;;;2.53;0.80;;;;;;;26.65;34.33;101498.13;4998840;28;22001;-84
2022/07/02 10:28:54;;;;;;;1.33;0.63;;;;;;;26.68;33.64;101490.41;4997376;28;20241;-85
2022/07/02 10:31:21;;;;;;;4.45;2.97;;;;;;;26.66;33.41;101491.63;4994856;28;20234;-85
2022/07/02 10:33:54;;;;;;;2.83;1.40;;;;;;;26.62;32.84;101486.50;5003284;28;20203;-85
2022/07/02 10:36:23;;;;;;;1.80;0.95;;;;;;;26.65;32.92;101482.56;5004895;28;20208;-84
2022/07/02 10:38:57;;;;;;;1.60;1.10;;;;;;;26.73;32.86;101490.69;5004184;28;20200;-85
2022/07/02 10:41:28;;;;;;;2.92;0.82;;;;;;;26.77;32.73;101482.97;4997018;28;20263;-83
2022/07/02 10:43:56;;;;;;;1.88;0.85;;;;;;;26.77;32.71;101481.09;5004241;28;20229;-83
2022/07/02 10:46:24;;;;;;;1.58;0.70;;;;;;;26.84;33.17;101484.81;4997973;28;20200;-84
2022/07/02 10:48:54;;;;;;;2.55;1.05;;;;;;;26.97;33.00;101478.75;5003543;28;20764;-84
2022/07/02 10:51:24;;;;;;;2.15;0.80;;;;;;;26.99;32.58;101476.69;4994931;28;20234;-84
2022/07/02 10:53:51;;;;;;;1.52;0.55;;;;;;;26.96;32.46;101477.06;4993171;28;20208;-83
2022/07/02 10:56:24;;;;;;;2.45;0.70;;;;;;;26.98;32.19;101480.44;5000912;28;20226;-84
2022/07/02 10:58:51;;;;;;;1.45;1.00;;;;;;;26.95;32.25;101475.34;5002025;28;20204;-83
2022/07/02 11:01:20;;;;;;;1.05;0.80;;;;;;;26.92;32.32;101473.78;5002406;28;20227;-84
2022/07/02 11:04:09;;;;;;;1.70;0.77;;;;;;;26.86;32.86;101466.34;4994374;28;20230;-85
2022/07/02 11:06:36;;;;;;;1.35;0.68;;;;;;;26.90;32.72;101470.38;4989508;28;20227;-84
2022/07/02 11:09:05;;;;;;;0.93;0.60;;;;;;;26.99;32.66;101470.38;4985538;28;20207;-83
2022/07/02 11:11:49;;;;;;;0.57;0.50;;;;;;;27.05;32.42;101465.00;4995374;28;20240;-83
2022/07/02 11:14:17;;;;;;;1.45;0.60;;;;;;;27.07;32.29;101464.81;4987587;28;20295;-83
2022/07/02 11:16:51;;;;;;;1.20;0.60;;;;;;;27.11;32.70;101469.72;4990532;28;20648;-85
2022/07/02 11:19:22;;;;;;;1.65;0.70;;;;;;;27.16;32.82;101466.44;4992831;28;20230;-84
2022/07/02 11:21:50;;;;;;;1.13;0.75;;;;;;;27.21;32.04;101467.59;4996936;28;20200;-84
2022/07/02 11:24:30;;;;;;;1.58;0.73;;;;;;;27.20;32.33;101465.03;5000614;28;20231;-85
2022/07/02 11:26:58;;;;;;;3.42;0.70;;;;;;;27.19;32.21;101466.94;4998012;28;20227;-84
2022/07/02 11:32:05;;;;;;;3.00;0.80;;;;;;;27.24;32.01;101460.88;5005453;28;20268;-83
2022/07/02 11:34:33;;;;;;;0.82;0.68;;;;;;;27.25;31.75;101444.28;4991642;28;20247;-83
2022/07/02 11:37:01;;;;;;;1.08;0.70;;;;;;;27.31;31.89;101450.91;4997579;28;20223;-82